Historique des mesures à Cassis (13260), France
Quotidien Résumé Mars 17, 2018 Unités:  Métrique    US   Métrique/US
« Précédent (Jour)
Suivant (Jour) »
Quotidien Hebdomadaire Mensuel Annuel Période au choix
  Maximum: Minimum: Moyenne:
Température: TemperatureC °C 8.1 °C 10.5 °C
Point de rosée: DewpointC °C 5.1 °C 6 °C
Humidité: Humidity % 62 % 71 %
Vitesse du vent: 0 km/h 0 km/h 10.1 km/h
Rafales: 0 km/h - -
Vent:- - WSW
Pression: PressurehPa hPa 990.7 hPa -
Précipitations: 4.6 mm    
Historical Graphs
 
 
Mesures pour : Mars 17, 2018
Heure Temperature Point de rosée Pression Vent Vitesse du vent Rafales Humidité Pluie (par heure) Conditions
TemperatureC °C DewpointC °C PressurehPa hPa Calm     Humidity % HourlyPrecipMM mm SoftwareType W/m2
00:11 12.3 °C 9.3 °C 997.9 hPa WNW 42.6 km/h 42.6 km/h 82 % 2.0 mm open2300-1.11 W/m2
01:12 9.4 °C 6.8 °C 996.5 hPa NNW 11.6 km/h 11.6 km/h 84 % 3.6 mm open2300-1.11 W/m2
02:11 9.3 °C 6.7 °C 995.8 hPa Calm   9.8 km/h 84 % 0.0 mm open2300-1.11 W/m2
03:12 8.6 °C 6.1 °C 995.1 hPa WNW 21.6 km/h 29 km/h 84 % 0.0 mm open2300-1.11 W/m2
04:11 8.9 °C 6.1 °C 994.1 hPa WNW 20.9 km/h 20.9 km/h 83 % 0.0 mm open2300-1.11 W/m2
05:11 8.5 °C 5.8 °C 994.1 hPa NW 6.4 km/h 12.2 km/h 83 % 0.0 mm open2300-1.11 W/m2
06:11 8.1 °C 5.4 °C 993.8 hPa Calm     83 % 0.0 mm open2300-1.11 W/m2
07:12 8.9 °C 6.3 °C 993.5 hPa Calm   16.9 km/h 84 % 0.0 mm open2300-1.11 W/m2
08:12 9.4 °C 6.3 °C 993.8 hPa North 5.1 km/h 6.4 km/h 81 % 0.0 mm open2300-1.11 W/m2
09:12 9.6 °C 5.9 °C 994.1 hPa NNW 4.7 km/h 4.7 km/h 78 % 0.0 mm open2300-1.11 W/m2
10:11 10.9 °C 6.3 °C 994.1 hPa WNW 22 km/h 24.8 km/h 73 % 0.0 mm open2300-1.11 W/m2
11:11 12.3 °C 6.6 °C 993.8 hPa NW 19.2 km/h 19.2 km/h 68 % 0.0 mm open2300-1.11 W/m2
12:11 13.0 °C 5.8 °C 993.5 hPa West 22.5 km/h 35.2 km/h 62 % 0.0 mm open2300-1.11 W/m2
13:11 12.9 °C 6.4 °C 993.1 hPa West 20.9 km/h 20.9 km/h 65 % 0.0 mm open2300-1.11 W/m2
14:12 13.1 °C 6.7 °C 992.8 hPa WNW 7.6 km/h 15 km/h 65 % 0.0 mm open2300-1.11 W/m2
15:11 14.1 °C 7.6 °C 992.1 hPa SSW 15 km/h 19.2 km/h 65 % 0.0 mm open2300-1.11 W/m2
16:12 14.3 °C 7.3 °C 991.8 hPa SSW 8.9 km/h 16.3 km/h 63 % 0.0 mm open2300-1.11 W/m2
17:11 13.1 °C 6.4 °C 991.4 hPa SW 17.9 km/h 17.9 km/h 64 % 0.0 mm open2300-1.11 W/m2
18:11 12.5 °C 6.3 °C 991.4 hPa SE 5.1 km/h 5.6 km/h 66 % 0.0 mm open2300-1.11 W/m2
19:11 11.9 °C 5.7 °C 991.8 hPa Calm     66 % 0.0 mm open2300-1.11 W/m2
20:11 11.2 °C 5.7 °C 991.8 hPa Calm   4.2 km/h 69 % 0.0 mm open2300-1.11 W/m2
21:11 10.4 °C 5.2 °C 991.4 hPa Calm     70 % 0.0 mm open2300-1.11 W/m2
22:12 10.4 °C 5.2 °C 990.7 hPa Calm     70 % 0.0 mm open2300-1.11 W/m2
23:12 10.3 °C 5.1 °C 990.7 hPa Calm     70 % 0.0 mm open2300-1.11 W/m2
Observations météo à CASSIS
WU-History script by Weather Underground - 1 mb